Terminal Aerodrome Forecast
Issued by NWS

Home | Current Version | Previous Version | Text Only | Print | Product List | Glossary On
Versions: 1 2 3 4 5 6 7 8 9 10 11 12 13 14 15 16 17 18 19
018
FTAK31 PAJN 220520
TAFASI
TAF
PASI 220520Z 2206/2306 VRB04KT P6SM SCT070 BKN100
     FM221500 02005KT 4SM -SNRA BR OVC040
     FM221800 06003KT 5SM -RA BR OVC025
     FM230300 VRB03KT P6SM -RA SCT025 OVC050=

USA.gov is the U.S. government's official web portal to all federal, state and local government web resources and services.